Terminal Aerodrome Forecast
Issued by NWS Sterling, VA

Home | Current Version | Previous Version | Text Only | Print | Product List | Glossary On
Versions: 1 2 3 4 5 6 7 8 9 10 11 12 13 14 15 16 17 18 19 20 21 22 23
899
FTUS41 KLWX 281507 AAA
TAFDCA
TAF AMD
KDCA 281507Z 2815/2912 06005KT P6SM SCT025
     FM281900 11006KT P6SM SKC
     FM290800 00000KT P6SM SKC=

USA.gov is the U.S. government's official web portal to all federal, state and local government web resources and services.